createdAt,value
2024-04-22T00:01:23.344Z,6.30
2024-04-22T00:03:51.003Z,5.70
2024-04-22T00:06:18.597Z,5.90
2024-04-22T00:08:46.185Z,6.60
2024-04-22T00:11:13.785Z,6.50
2024-04-22T00:13:41.566Z,6.00
2024-04-22T00:16:09.391Z,6.60
2024-04-22T00:18:37.013Z,7.20
2024-04-22T00:21:04.786Z,5.20
2024-04-22T00:23:32.391Z,6.70
2024-04-22T00:26:01.870Z,1.90
2024-04-22T00:28:29.693Z,6.00
2024-04-22T00:30:57.328Z,5.20
2024-04-22T00:33:24.948Z,6.10
2024-04-22T00:36:00.418Z,5.70
2024-04-22T00:38:29.723Z,5.90
2024-04-22T00:40:57.931Z,6.80
2024-04-22T00:43:26.072Z,5.80
2024-04-22T00:45:54.266Z,5.60
2024-04-22T00:48:23.762Z,5.20
2024-04-22T00:50:56.331Z,4.70
2024-04-22T00:53:25.363Z,4.50
2024-04-22T00:55:55.252Z,4.60
2024-04-22T00:58:25.058Z,4.60
2024-04-22T01:00:52.937Z,5.00
2024-04-22T01:03:20.713Z,5.10
2024-04-22T01:05:48.487Z,5.30
2024-04-22T01:08:16.715Z,4.70
2024-04-22T01:10:45.425Z,4.70
2024-04-22T01:13:14.005Z,5.40
2024-04-22T01:15:47.319Z,5.60
2024-04-22T01:18:24.808Z,5.70
2024-04-22T01:20:59.350Z,5.90
2024-04-22T01:23:32.710Z,6.30
2024-04-22T01:26:06.501Z,6.50
2024-04-22T01:28:36.542Z,6.50
2024-04-22T01:31:04.383Z,6.20
2024-04-22T01:33:32.000Z,6.30
2024-04-22T01:35:59.638Z,6.30
2024-04-22T01:38:27.287Z,6.00
2024-04-22T01:40:54.886Z,6.30
2024-04-22T01:43:22.509Z,7.60
2024-04-22T01:45:50.258Z,7.50
2024-04-22T01:48:17.926Z,7.00
2024-04-22T01:50:46.255Z,8.40
2024-04-22T01:53:13.871Z,9.50
2024-04-22T01:55:41.573Z,7.80
2024-04-22T01:58:09.210Z,8.00
2024-04-22T02:00:37.676Z,8.00
2024-04-22T02:03:05.347Z,8.80
2024-04-22T02:05:33.115Z,7.60
2024-04-22T02:08:00.724Z,8.60
2024-04-22T02:10:28.358Z,8.60
2024-04-22T02:12:56.609Z,8.10
2024-04-22T02:15:24.300Z,7.10
2024-04-22T02:17:52.455Z,6.70
2024-04-22T02:20:20.103Z,7.60
2024-04-22T02:22:47.765Z,7.50
2024-04-22T02:25:15.435Z,8.30
2024-04-22T02:27:43.068Z,7.80
2024-04-22T02:30:10.962Z,8.20
2024-04-22T02:32:38.638Z,7.30
2024-04-22T02:35:06.416Z,7.30
2024-04-22T02:37:34.142Z,8.20
2024-04-22T02:40:01.843Z,8.10
2024-04-22T02:42:29.511Z,7.50
2024-04-22T02:44:57.123Z,7.40
2024-04-22T02:47:25.198Z,5.90
2024-04-22T02:49:52.816Z,6.90
2024-04-22T02:52:20.446Z,6.30
2024-04-22T02:54:48.131Z,5.80
2024-04-22T02:57:15.705Z,4.90
2024-04-22T02:59:43.872Z,5.50
2024-04-22T03:02:11.504Z,5.80
2024-04-22T03:04:39.234Z,5.20
2024-04-22T03:07:08.392Z,4.90
2024-04-22T03:09:40.624Z,6.70
2024-04-22T03:12:08.496Z,5.00
2024-04-22T03:14:37.122Z,6.10
2024-04-22T03:17:05.565Z,5.50
2024-04-22T03:19:33.244Z,4.70
2024-04-22T03:22:00.903Z,4.50
2024-04-22T03:24:28.535Z,5.00
2024-04-22T03:26:56.186Z,3.90
2024-04-22T03:29:23.840Z,4.90
2024-04-22T03:31:52.104Z,6.00
2024-04-22T03:34:20.627Z,6.00
2024-04-22T03:36:49.400Z,4.80
2024-04-22T03:39:17.372Z,5.50
2024-04-22T03:41:45.483Z,5.30
2024-04-22T03:44:13.088Z,5.10
2024-04-22T03:46:59.326Z,6.10
2024-04-22T03:49:45.879Z,6.70
2024-04-22T03:52:13.569Z,7.20
2024-04-22T03:54:41.183Z,6.70
2024-04-22T03:57:08.778Z,6.10
2024-04-22T03:59:36.478Z,7.30
2024-04-22T04:02:04.318Z,6.60
2024-04-22T04:04:32.303Z,6.80
2024-04-22T04:07:00.475Z,5.40
2024-04-22T04:09:28.175Z,4.90
2024-04-22T04:11:55.827Z,6.20
2024-04-22T04:14:23.532Z,5.90
2024-04-22T04:16:51.204Z,6.50
2024-04-22T04:21:46.480Z,6.10
2024-04-22T04:24:14.704Z,6.70
2024-04-22T04:26:42.427Z,6.70
2024-04-22T04:29:10.035Z,6.50
2024-04-22T04:31:37.706Z,5.80
2024-04-22T04:34:05.362Z,5.30
2024-04-22T04:36:32.971Z,6.10
2024-04-22T04:39:00.586Z,5.50
2024-04-22T04:41:34.286Z,5.60
2024-04-22T04:44:02.497Z,6.00
2024-04-22T04:46:30.347Z,5.00
2024-04-22T04:48:57.953Z,5.80
2024-04-22T04:51:25.628Z,6.10
2024-04-22T04:53:53.311Z,5.90
2024-04-22T04:56:21.585Z,5.00
2024-04-22T04:58:50.133Z,6.90
2024-04-22T05:01:20.143Z,7.80
2024-04-22T05:03:48.102Z,5.60
2024-04-22T05:06:15.724Z,5.90
2024-04-22T05:08:44.727Z,6.70
2024-04-22T05:11:12.367Z,6.50
2024-04-22T05:13:40.044Z,7.30
2024-04-22T05:16:07.823Z,6.20
2024-04-22T05:18:35.591Z,5.90
2024-04-22T05:21:03.431Z,7.50
2024-04-22T05:23:31.066Z,7.60
2024-04-22T05:25:58.691Z,6.40
2024-04-22T05:28:28.304Z,6.90
2024-04-22T05:30:56.008Z,6.80
2024-04-22T05:33:42.462Z,6.70
2024-04-22T05:36:10.253Z,7.90
2024-04-22T05:38:46.638Z,7.00
2024-04-22T05:41:14.703Z,6.50
2024-04-22T05:43:42.512Z,8.20
2024-04-22T05:46:12.552Z,7.10
2024-04-22T05:48:44.187Z,5.80
2024-04-22T05:51:12.077Z,5.20
2024-04-22T05:53:44.432Z,7.30
2024-04-22T05:56:12.346Z,6.70
2024-04-22T05:58:40.023Z,6.00
2024-04-22T06:01:07.875Z,7.30
2024-04-22T06:03:35.594Z,6.90
2024-04-22T06:06:03.414Z,6.10
2024-04-22T06:08:31.052Z,6.50
2024-04-22T06:10:58.816Z,6.10
2024-04-22T06:13:26.673Z,6.20
2024-04-22T06:15:54.554Z,5.50
2024-04-22T06:18:22.215Z,6.60
2024-04-22T06:20:49.834Z,5.50
2024-04-22T06:23:17.522Z,5.40
2024-04-22T06:25:45.279Z,6.20
2024-04-22T06:28:12.938Z,4.70
2024-04-22T06:30:40.598Z,5.30
2024-04-22T06:33:08.291Z,5.60
2024-04-22T06:35:36.009Z,4.80
2024-04-22T06:38:06.115Z,5.50
2024-04-22T06:40:35.312Z,5.50
2024-04-22T06:43:03.258Z,4.30
2024-04-22T06:45:30.948Z,4.60
2024-04-22T06:47:58.762Z,4.80
2024-04-22T06:50:26.698Z,3.90
2024-04-22T06:52:54.577Z,4.90
2024-04-22T06:55:25.482Z,4.40
2024-04-22T06:57:53.815Z,4.00
2024-04-22T07:00:21.766Z,3.50
2024-04-22T07:02:49.562Z,4.00
2024-04-22T07:05:17.373Z,3.90
2024-04-22T07:07:47.697Z,4.70
2024-04-22T07:10:15.846Z,6.30
2024-04-22T07:12:43.866Z,6.20
2024-04-22T07:15:13.137Z,5.70
2024-04-22T07:18:01.745Z,5.90
2024-04-22T07:20:29.456Z,5.60
2024-04-22T07:22:57.164Z,5.10
2024-04-22T07:25:26.040Z,5.20
2024-04-22T07:27:54.563Z,6.70
2024-04-22T07:30:25.758Z,4.20
2024-04-22T07:32:53.852Z,5.30
2024-04-22T07:35:22.269Z,5.20
2024-04-22T07:37:56.228Z,5.00
2024-04-22T07:40:24.819Z,4.30
2024-04-22T07:42:52.466Z,4.40
2024-04-22T07:45:23.218Z,5.40
2024-04-22T07:47:53.241Z,5.90
2024-04-22T07:50:21.381Z,5.40
2024-04-22T07:52:51.796Z,4.40
2024-04-22T07:55:19.977Z,4.70
2024-04-22T07:57:49.999Z,4.40
2024-04-22T08:00:20.062Z,4.20
2024-04-22T08:02:48.479Z,3.70
2024-04-22T08:05:16.765Z,4.10
2024-04-22T08:07:48.483Z,3.80
2024-04-22T08:10:16.313Z,4.20
2024-04-22T08:12:44.049Z,4.70
2024-04-22T08:15:12.298Z,5.40
2024-04-22T08:17:40.099Z,3.70
2024-04-22T08:20:08.051Z,4.80
2024-04-22T08:22:35.807Z,4.70
2024-04-22T08:25:04.599Z,3.90
2024-04-22T08:27:32.222Z,4.10
2024-04-22T08:29:59.897Z,3.70
2024-04-22T08:32:27.874Z,3.10
2024-04-22T08:34:59.013Z,3.30
2024-04-22T08:37:26.632Z,4.50
2024-04-22T08:39:54.276Z,3.50
2024-04-22T08:42:24.516Z,3.60
2024-04-22T08:44:53.591Z,4.20
2024-04-22T08:47:22.099Z,4.60
2024-04-22T08:49:50.771Z,4.00
2024-04-22T08:52:20.099Z,4.10
2024-04-22T08:54:47.818Z,4.10
2024-04-22T08:57:15.881Z,3.50
2024-04-22T08:59:45.436Z,4.30
2024-04-22T09:02:16.281Z,4.50
2024-04-22T09:04:47.125Z,4.40
2024-04-22T09:07:19.718Z,4.30
2024-04-22T09:10:05.040Z,4.20
2024-04-22T09:12:36.188Z,4.50
2024-04-22T09:15:04.840Z,4.00
2024-04-22T09:17:33.651Z,3.70
2024-04-22T09:20:01.739Z,3.60
2024-04-22T09:22:31.193Z,4.00
2024-04-22T09:24:59.224Z,3.10
2024-04-22T09:27:29.075Z,3.40
2024-04-22T09:30:04.890Z,3.30
2024-04-22T09:32:33.440Z,2.30
2024-04-22T09:35:23.123Z,3.90
2024-04-22T09:37:52.147Z,3.60
2024-04-22T09:40:20.845Z,2.80
2024-04-22T09:42:49.785Z,3.10
2024-04-22T09:45:17.695Z,3.50
2024-04-22T09:47:47.408Z,4.80
2024-04-22T09:50:17.829Z,3.30
2024-04-22T09:52:48.508Z,3.20
2024-04-22T09:55:17.111Z,3.70
2024-04-22T09:57:48.421Z,3.60
2024-04-22T10:00:17.551Z,3.40
2024-04-22T10:02:45.829Z,3.20
2024-04-22T10:05:14.896Z,3.40
2024-04-22T10:07:42.937Z,3.40
2024-04-22T10:10:11.291Z,3.20
2024-04-22T10:12:41.382Z,3.20
2024-04-22T10:15:17.373Z,3.30
2024-04-22T10:20:15.963Z,4.20
2024-04-22T10:22:44.692Z,3.10
2024-04-22T10:25:19.319Z,3.80
2024-04-22T10:27:47.274Z,3.00
2024-04-22T10:30:14.986Z,3.10
2024-04-22T10:32:42.675Z,3.00
2024-04-22T10:35:10.352Z,3.30
2024-04-22T10:37:39.434Z,3.20
2024-04-22T10:40:08.730Z,3.40
2024-04-22T10:42:36.457Z,2.70
2024-04-22T10:45:04.587Z,3.00
2024-04-22T10:47:33.871Z,3.20
2024-04-22T10:50:01.797Z,3.00
2024-04-22T10:52:30.912Z,2.90
2024-04-22T10:54:59.159Z,3.10
2024-04-22T10:57:27.154Z,3.20
2024-04-22T10:59:57.042Z,3.20
2024-04-22T11:02:24.911Z,2.90
2024-04-22T11:04:52.662Z,2.90
2024-04-22T11:07:23.885Z,3.20
2024-04-22T11:09:52.115Z,2.70
2024-04-22T11:12:23.928Z,2.90
2024-04-22T11:14:54.564Z,3.10
2024-04-22T11:17:24.488Z,3.60
2024-04-22T11:19:52.267Z,2.80
2024-04-22T11:22:22.991Z,2.80
2024-04-22T11:24:50.782Z,3.00
2024-04-22T11:27:19.317Z,3.00
2024-04-22T11:29:47.097Z,2.90
2024-04-22T11:32:15.070Z,3.00
2024-04-22T11:34:42.801Z,2.60
2024-04-22T11:37:10.509Z,2.90
2024-04-22T11:39:38.166Z,3.20
2024-04-22T11:42:06.138Z,3.30
2024-04-22T11:44:33.789Z,3.20
2024-04-22T11:47:01.486Z,3.00
2024-04-22T11:49:29.597Z,4.30
2024-04-22T11:51:57.311Z,2.90
2024-04-22T11:54:24.940Z,4.20
2024-04-22T11:56:52.814Z,3.50
2024-04-22T11:59:20.500Z,5.50
2024-04-22T12:01:48.349Z,3.80
2024-04-22T12:04:16.453Z,3.90
2024-04-22T12:06:44.496Z,3.30
2024-04-22T12:09:12.614Z,2.60
2024-04-22T12:11:40.472Z,2.80
2024-04-22T12:14:08.788Z,3.40
2024-04-22T12:16:36.587Z,3.00
2024-04-22T12:19:04.253Z,3.20
2024-04-22T12:21:31.947Z,3.30
2024-04-22T12:23:59.660Z,4.30
2024-04-22T12:26:27.898Z,3.70
2024-04-22T12:28:55.613Z,3.90
2024-04-22T12:31:24.089Z,3.60
2024-04-22T12:33:58.792Z,3.60
2024-04-22T12:36:35.777Z,4.40
2024-04-22T12:39:03.554Z,4.10
2024-04-22T12:41:39.968Z,3.70
2024-04-22T12:44:10.881Z,3.80
2024-04-22T12:46:59.697Z,3.40
2024-04-22T12:49:46.276Z,4.40
2024-04-22T12:54:42.576Z,3.30
2024-04-22T12:57:11.378Z,1.90
2024-04-22T12:59:39.119Z,4.40
2024-04-22T13:02:11.414Z,1.70
2024-04-22T13:04:39.906Z,4.40
2024-04-22T13:07:07.613Z,3.20
2024-04-22T13:09:36.335Z,3.10
2024-04-22T13:12:04.523Z,2.60
2024-04-22T13:14:32.234Z,4.00
2024-04-22T13:16:59.932Z,3.40
2024-04-22T13:19:27.703Z,3.60
2024-04-22T13:21:55.722Z,3.10
2024-04-22T13:24:23.447Z,3.30
2024-04-22T13:26:51.381Z,3.80
2024-04-22T13:29:19.037Z,3.00
2024-04-22T13:34:20.324Z,3.10
2024-04-22T13:36:47.979Z,3.60
2024-04-22T13:39:15.657Z,3.20
2024-04-22T13:41:43.617Z,2.90
2024-04-22T13:44:11.276Z,4.20
2024-04-22T13:46:39.169Z,4.10
2024-04-22T13:49:07.013Z,3.80
2024-04-22T13:51:34.695Z,3.50
2024-04-22T13:54:02.468Z,3.80
2024-04-22T13:56:30.135Z,3.10
2024-04-22T13:58:57.990Z,3.40
2024-04-22T14:01:25.743Z,3.70
2024-04-22T14:03:53.804Z,4.20
2024-04-22T14:06:21.995Z,4.10
2024-04-22T14:08:51.302Z,3.60
2024-04-22T14:11:19.735Z,3.80
2024-04-22T14:13:47.909Z,3.50
2024-04-22T14:16:15.976Z,3.00
2024-04-22T14:18:44.271Z,3.50
2024-04-22T14:21:12.534Z,3.10
2024-04-22T14:23:40.203Z,3.70
2024-04-22T14:26:07.864Z,3.50
2024-04-22T14:28:37.933Z,3.10
2024-04-22T14:31:07.315Z,4.60
2024-04-22T14:33:34.996Z,4.90
2024-04-22T14:36:02.717Z,4.70
2024-04-22T14:38:30.442Z,3.40
2024-04-22T14:40:58.076Z,4.20
2024-04-22T14:43:25.756Z,3.40
2024-04-22T14:45:53.448Z,4.20
2024-04-22T14:48:21.101Z,3.80
2024-04-22T14:50:52.533Z,3.10
2024-04-22T14:53:20.630Z,3.90
2024-04-22T14:55:48.626Z,3.70
2024-04-22T14:58:16.307Z,3.40
2024-04-22T15:00:44.020Z,3.60
2024-04-22T15:03:14.267Z,4.80
2024-04-22T15:05:42.825Z,3.50
2024-04-22T15:08:10.475Z,4.10
2024-04-22T15:10:52.440Z,4.00
2024-04-22T15:13:20.598Z,3.80
2024-04-22T15:15:48.347Z,4.20
2024-04-22T15:18:16.148Z,3.80
2024-04-22T15:20:43.880Z,4.20
2024-04-22T15:23:11.644Z,4.50
2024-04-22T15:25:39.309Z,4.70
2024-04-22T15:28:07.091Z,4.70
2024-04-22T15:30:34.822Z,4.80
2024-04-22T15:33:02.595Z,4.00
2024-04-22T15:35:30.319Z,4.60
2024-04-22T15:37:57.951Z,5.60
2024-04-22T15:40:25.742Z,5.30
2024-04-22T15:42:54.058Z,5.30
2024-04-22T15:45:21.710Z,4.20
2024-04-22T15:47:49.466Z,4.60
2024-04-22T15:50:17.196Z,4.20
2024-04-22T15:52:44.911Z,5.10
2024-04-22T15:55:12.605Z,4.10
2024-04-22T15:57:40.266Z,4.30
2024-04-22T16:00:10.501Z,3.70
2024-04-22T16:02:38.734Z,4.30
2024-04-22T16:05:06.716Z,4.80
2024-04-22T16:07:34.803Z,5.50
2024-04-22T16:10:02.446Z,4.50
2024-04-22T16:12:30.104Z,4.20
2024-04-22T16:15:00.369Z,5.10
2024-04-22T16:17:28.680Z,4.60
2024-04-22T16:19:56.352Z,4.90
2024-04-22T16:22:24.211Z,4.70
2024-04-22T16:24:51.860Z,4.80
2024-04-22T16:27:19.942Z,4.50
2024-04-22T16:29:47.662Z,5.70
2024-04-22T16:32:15.313Z,5.10
2024-04-22T16:34:43.664Z,4.50
2024-04-22T16:37:11.328Z,3.30
2024-04-22T16:39:39.772Z,5.40
2024-04-22T16:42:07.689Z,5.60
2024-04-22T16:44:35.432Z,5.90
2024-04-22T16:47:04.251Z,5.40
2024-04-22T16:49:32.322Z,5.70
2024-04-22T16:54:29.077Z,5.30
2024-04-22T16:56:56.858Z,5.10
2024-04-22T16:59:24.595Z,5.30
2024-04-22T17:01:52.418Z,5.30
2024-04-22T17:04:20.124Z,4.80
2024-04-22T17:06:47.814Z,5.00
2024-04-22T17:09:19.502Z,5.60
2024-04-22T17:11:47.167Z,4.80
2024-04-22T17:14:14.985Z,5.00
2024-04-22T17:16:45.495Z,5.90
2024-04-22T17:21:41.103Z,10.20
2024-04-22T17:24:09.793Z,9.10
2024-04-22T17:26:37.502Z,10.60
2024-04-22T17:29:05.266Z,9.10
2024-04-22T17:31:32.922Z,7.80
2024-04-22T17:34:00.810Z,9.00
2024-04-22T17:36:28.518Z,10.20
2024-04-22T17:38:56.198Z,10.20
2024-04-22T17:41:24.456Z,9.80
2024-04-22T17:43:52.190Z,10.60
2024-04-22T17:46:19.967Z,9.50
2024-04-22T17:48:48.290Z,8.10
2024-04-22T17:51:16.711Z,8.00
2024-04-22T17:53:44.693Z,10.00
2024-04-22T17:56:16.484Z,9.60
2024-04-22T17:58:44.415Z,9.30
2024-04-22T18:01:13.293Z,8.70
2024-04-22T18:03:40.948Z,8.70
2024-04-22T18:06:08.657Z,8.30
2024-04-22T18:08:36.390Z,8.80
2024-04-22T18:11:04.292Z,6.80
2024-04-22T18:13:31.986Z,8.20
2024-04-22T18:15:59.906Z,7.80
2024-04-22T18:18:27.621Z,7.50
2024-04-22T18:20:55.389Z,7.70
2024-04-22T18:23:23.352Z,8.30
2024-04-22T18:25:52.900Z,8.90
2024-04-22T18:28:24.703Z,7.80
2024-04-22T18:30:59.361Z,8.80
2024-04-22T18:33:27.592Z,7.80
2024-04-22T18:35:56.273Z,8.80
2024-04-22T18:38:24.641Z,8.50
2024-04-22T18:40:55.524Z,8.40
2024-04-22T18:43:23.219Z,9.00
2024-04-22T18:45:50.920Z,7.70
2024-04-22T18:48:18.801Z,9.00
2024-04-22T18:50:50.275Z,8.70
2024-04-22T18:53:20.071Z,9.80
2024-04-22T18:55:48.012Z,9.00
2024-04-22T18:58:15.708Z,8.70
2024-04-22T19:00:43.455Z,9.20
2024-04-22T19:03:11.256Z,9.30
2024-04-22T19:05:38.998Z,8.70
2024-04-22T19:08:07.650Z,8.40
2024-04-22T19:10:35.754Z,9.40
2024-04-22T19:13:03.396Z,9.40
2024-04-22T19:15:31.092Z,10.10
2024-04-22T19:17:58.810Z,9.00
2024-04-22T19:20:26.559Z,10.10
2024-04-22T19:22:54.504Z,9.60
2024-04-22T19:25:22.425Z,8.90
2024-04-22T19:27:51.785Z,9.20
2024-04-22T19:30:19.552Z,10.50
2024-04-22T19:32:47.313Z,9.80
2024-04-22T19:35:16.975Z,10.00
2024-04-22T19:37:53.475Z,10.20
2024-04-22T19:40:23.782Z,10.10
2024-04-22T19:43:18.590Z,10.90
2024-04-22T19:45:47.120Z,9.40
2024-04-22T19:48:15.475Z,10.80
2024-04-22T19:50:45.174Z,10.20
2024-04-22T19:53:14.183Z,12.00
2024-04-22T19:55:46.542Z,10.50
2024-04-22T19:58:17.464Z,12.30
2024-04-22T20:00:48.761Z,10.70
2024-04-22T20:03:16.509Z,11.20
2024-04-22T20:05:45.287Z,9.80
2024-04-22T20:08:13.435Z,11.30
2024-04-22T20:10:41.671Z,10.90
2024-04-22T20:13:11.036Z,11.40
2024-04-22T20:15:50.843Z,9.70
2024-04-22T20:18:38.066Z,10.90
2024-04-22T20:21:05.774Z,9.90
2024-04-22T20:23:33.419Z,10.30
2024-04-22T20:26:01.635Z,10.20
2024-04-22T20:28:29.750Z,10.70
2024-04-22T20:30:57.397Z,10.50
2024-04-22T20:33:25.115Z,8.90
2024-04-22T20:35:56.414Z,8.80
2024-04-22T20:38:24.499Z,11.00
2024-04-22T20:41:03.297Z,9.60
2024-04-22T20:43:32.460Z,9.20
2024-04-22T20:46:01.341Z,10.50
2024-04-22T20:48:38.041Z,10.10
2024-04-22T20:51:10.085Z,10.30
2024-04-22T20:53:38.423Z,10.90
2024-04-22T20:56:06.533Z,10.60
2024-04-22T20:58:35.656Z,10.70
2024-04-22T21:01:05.985Z,12.00
2024-04-22T21:03:34.286Z,11.70
2024-04-22T21:06:04.169Z,12.70
2024-04-22T21:08:32.669Z,13.70
2024-04-22T21:11:02.260Z,12.60
2024-04-22T21:13:41.548Z,13.50
2024-04-22T21:16:10.220Z,12.40
2024-04-22T21:18:37.970Z,12.00
2024-04-22T21:21:05.690Z,10.90
2024-04-22T21:23:33.690Z,10.60
2024-04-22T21:26:01.464Z,11.10
2024-04-22T21:28:29.902Z,10.40
2024-04-22T21:30:57.873Z,9.60
2024-04-22T21:33:41.802Z,9.30
2024-04-22T21:36:13.126Z,10.20
2024-04-22T21:38:41.446Z,9.70
2024-04-22T21:41:09.105Z,9.30
2024-04-22T21:43:37.319Z,8.40
2024-04-22T21:46:05.291Z,9.10
2024-04-22T21:48:32.940Z,9.30
2024-04-22T21:51:00.560Z,8.80
2024-04-22T21:53:28.165Z,9.60
2024-04-22T21:56:08.439Z,9.70
2024-04-22T21:59:13.875Z,8.20
2024-04-22T22:02:21.905Z,7.50
2024-04-22T22:05:26.900Z,8.60
2024-04-22T22:07:55.002Z,9.00
2024-04-22T22:10:22.823Z,8.80
2024-04-22T22:12:50.754Z,9.20
2024-04-22T22:15:18.524Z,9.60
2024-04-22T22:17:46.265Z,10.80
2024-04-22T22:20:13.921Z,9.80
2024-04-22T22:22:42.615Z,10.70
2024-04-22T22:25:11.651Z,11.00
2024-04-22T22:27:39.591Z,9.40
2024-04-22T22:30:14.778Z,10.20
2024-04-22T22:32:43.547Z,10.40
2024-04-22T22:35:14.507Z,10.40
2024-04-22T22:37:42.203Z,9.10
2024-04-22T22:40:11.183Z,9.60
2024-04-22T22:42:48.970Z,8.60
2024-04-22T22:45:19.761Z,9.60
2024-04-22T22:47:47.444Z,9.20
2024-04-22T22:50:15.119Z,10.10
2024-04-22T22:52:42.848Z,9.30
2024-04-22T22:55:10.496Z,9.70
2024-04-22T22:57:38.123Z,8.70
2024-04-22T23:00:06.140Z,9.40
2024-04-22T23:02:33.795Z,8.70
2024-04-22T23:05:01.458Z,8.50
2024-04-22T23:07:29.078Z,9.30
2024-04-22T23:09:56.667Z,8.30
2024-04-22T23:12:24.256Z,9.70
2024-04-22T23:14:51.912Z,9.40
2024-04-22T23:17:19.744Z,9.40
2024-04-22T23:19:47.444Z,8.60
2024-04-22T23:22:15.208Z,8.00
2024-04-22T23:24:42.794Z,8.80
2024-04-22T23:27:10.503Z,7.70
2024-04-22T23:29:38.210Z,8.50
2024-04-22T23:32:05.960Z,8.80
2024-04-22T23:34:33.635Z,7.70
2024-04-22T23:37:01.247Z,7.30
2024-04-22T23:39:28.853Z,8.80
2024-04-22T23:41:56.443Z,8.00
2024-04-22T23:44:24.503Z,8.80
2024-04-22T23:46:57.265Z,8.20
2024-04-22T23:49:26.529Z,7.00
2024-04-22T23:51:54.424Z,8.60
2024-04-22T23:54:22.417Z,8.10
2024-04-22T23:57:00.514Z,8.90
2024-04-22T23:59:29.385Z,7.90
